Time;durP1;ratioP1;P1;durP2;ratioP2;P2;SDS_P1;SDS_P2;PMS_P1;PMS_P2;Temp;Humidity;BMP_temperature;BMP_pressure;BME280_temperature;BME280_humidity;BME280_pressure;Samples;Min_cycle;Max_cycle;Signal;HPM_P1;HPM_P2
2022/05/19 00:01:24;;;;;;;5.80;3.33;;;;;;;17.98;84.97;100440.00;5034091;28;20236;-60
2022/05/19 00:03:49;;;;;;;4.40;3.27;;;;;;;17.91;85.76;100437.88;5035147;28;20199;-61
2022/05/19 00:06:15;;;;;;;5.43;3.77;;;;;;;17.84;85.76;100439.31;5030895;28;20173;-60
2022/05/19 00:08:40;;;;;;;4.47;4.00;;;;;;;17.75;87.13;100447.84;5030224;28;20186;-60
2022/05/19 00:11:11;;;;;;;3.93;3.63;;;;;;;17.65;86.77;100436.50;5029323;28;20289;-59
2022/05/19 00:13:37;;;;;;;3.63;3.27;;;;;;;17.62;86.90;100434.97;5045977;28;20188;-58
2022/05/19 00:16:05;;;;;;;4.23;3.83;;;;;;;17.55;86.97;100439.00;5050536;28;20209;-66
2022/05/19 00:18:31;;;;;;;4.03;3.63;;;;;;;17.43;87.92;100433.00;5049430;28;20331;-60
2022/05/19 00:20:56;;;;;;;4.33;3.80;;;;;;;17.40;88.38;100436.69;5039130;28;20690;-59
2022/05/19 00:23:21;;;;;;;4.23;3.93;;;;;;;17.48;87.65;100435.25;5050935;28;20181;-59
2022/05/19 00:25:47;;;;;;;4.70;4.13;;;;;;;17.46;88.29;100440.56;5052025;28;20646;-59
2022/05/19 00:28:13;;;;;;;5.47;3.43;;;;;;;17.41;88.85;100433.13;5042416;28;20289;-59
2022/05/19 00:30:39;;;;;;;4.90;3.23;;;;;;;17.31;89.26;100431.38;5038001;28;20240;-59
2022/05/19 00:33:04;;;;;;;5.40;4.27;;;;;;;17.34;89.06;100431.13;5050421;28;20252;-59
2022/05/19 00:35:30;;;;;;;5.27;4.20;;;;;;;17.29;89.08;100435.84;5037545;28;20174;-60
2022/05/19 00:37:55;;;;;;;4.80;3.83;;;;;;;17.22;89.62;100430.31;5054639;28;20256;-60
2022/05/19 00:40:23;;;;;;;4.40;3.90;;;;;;;17.12;90.56;100430.19;5046998;28;20192;-59
2022/05/19 00:42:48;;;;;;;4.67;3.60;;;;;;;17.12;90.57;100432.78;5053774;28;20173;-58
2022/05/19 00:45:21;;;;;;;5.47;4.03;;;;;;;17.06;90.52;100430.66;5054916;28;20516;-60
2022/05/19 00:47:56;;;;;;;4.57;4.10;;;;;;;16.95;91.41;100428.88;5052623;28;20220;-59
2022/05/19 00:50:45;;;;;;;4.73;4.07;;;;;;;16.97;90.36;100432.19;5045974;28;20173;-59
2022/05/19 00:53:38;;;;;;;7.63;4.40;;;;;;;16.94;91.12;100430.66;5063826;28;20182;-59
2022/05/19 00:56:30;;;;;;;4.30;3.90;;;;;;;16.92;90.96;100424.75;5037992;28;20186;-60
2022/05/19 00:59:03;;;;;;;5.47;4.40;;;;;;;16.93;91.29;100423.81;5039899;28;20244;-60
2022/05/19 01:01:29;;;;;;;4.00;3.60;;;;;;;16.99;91.35;100430.28;5054569;28;20320;-58
2022/05/19 01:04:01;;;;;;;4.97;4.37;;;;;;;17.00;91.78;100423.34;5038080;28;20182;-59
2022/05/19 01:06:28;;;;;;;6.43;4.33;;;;;;;16.97;91.66;100416.59;5049561;28;20748;-59
2022/05/19 01:09:04;;;;;;;5.30;3.90;;;;;;;16.83;93.26;100419.38;5033115;28;20178;-60
2022/05/19 01:11:31;;;;;;;5.00;4.30;;;;;;;16.86;94.03;100422.56;5047564;28;20228;-60
2022/05/19 01:13:57;;;;;;;5.50;4.20;;;;;;;16.88;93.89;100417.25;5048546;28;20188;-60
2022/05/19 01:16:22;;;;;;;5.57;4.53;;;;;;;16.90;93.57;100413.59;5052355;28;21095;-59
2022/05/19 01:18:48;;;;;;;4.23;3.67;;;;;;;16.85;94.70;100422.69;5052762;28;21016;-61
2022/05/19 01:21:16;;;;;;;8.20;3.90;;;;;;;16.85;94.00;100426.13;5042416;28;20647;-60
2022/05/19 01:24:09;;;;;;;7.33;3.90;;;;;;;16.77;94.27;100423.28;5046549;28;20199;-59
2022/05/19 01:26:51;;;;;;;4.17;3.77;;;;;;;16.67;94.59;100428.34;5052450;28;20181;-59
2022/05/19 01:29:20;;;;;;;7.03;5.40;;;;;;;16.68;94.69;100421.38;5052812;28;20677;-60
2022/05/19 01:31:51;;;;;;;4.53;4.03;;;;;;;16.66;94.98;100425.84;5042077;28;20233;-60
2022/05/19 01:34:20;;;;;;;10.27;5.20;;;;;;;16.60;94.90;100427.16;5054266;28;20280;-58
2022/05/19 01:36:45;;;;;;;5.70;4.50;;;;;;;16.52;95.16;100434.66;5051515;28;20178;-59
2022/05/19 01:39:23;;;;;;;5.17;4.37;;;;;;;16.46;94.91;100429.00;5053894;28;20177;-59
2022/05/19 01:42:09;;;;;;;8.63;4.63;;;;;;;16.32;95.95;100436.16;5057448;28;20236;-59
2022/05/19 01:44:46;;;;;;;5.10;4.60;;;;;;;16.30;96.65;100439.69;5054039;28;20198;-59
2022/05/19 01:47:41;;;;;;;6.93;5.47;;;;;;;16.26;97.54;100437.41;5052008;28;20183;-58
2022/05/19 01:50:24;;;;;;;7.83;5.20;;;;;;;16.18;97.51;100422.41;5039509;28;20194;-60
2022/05/19 01:53:23;;;;;;;5.87;4.93;;;;;;;16.12;97.21;100430.63;5074611;28;20209;-60
2022/05/19 01:56:07;;;;;;;8.43;5.13;;;;;;;16.19;97.97;100429.25;5053546;28;20598;-59
2022/05/19 01:58:52;;;;;;;5.60;5.10;;;;;;;16.15;97.76;100438.22;5053597;28;20265;-58
2022/05/19 02:01:24;;;;;;;7.10;4.93;;;;;;;16.13;99.23;100433.13;5072228;28;20572;-59
2022/05/19 02:04:16;;;;;;;8.43;5.03;;;;;;;16.11;98.02;100427.22;5063983;28;20193;-59
2022/05/19 02:06:46;;;;;;;6.33;5.63;;;;;;;16.14;98.33;100418.41;5068382;28;20177;-60
2022/05/19 02:09:20;;;;;;;6.37;5.17;;;;;;;16.00;99.74;100419.41;5068936;28;20272;-58
2022/05/19 02:11:52;;;;;;;8.50;5.50;;;;;;;16.02;100.00;100419.28;5075400;28;20227;-58
2022/05/19 02:14:22;;;;;;;8.17;5.33;;;;;;;16.02;100.00;100419.28;5053434;28;20576;-58
2022/05/19 02:16:49;;;;;;;6.40;5.00;;;;;;;16.06;100.00;100416.38;5051298;28;20294;-58
2022/05/19 02:19:22;;;;;;;7.77;4.73;;;;;;;16.03;100.00;100421.75;5051747;28;20537;-59
2022/05/19 02:21:48;;;;;;;5.67;5.10;;;;;;;16.06;100.00;100420.72;5041231;28;20313;-58
2022/05/19 02:24:19;;;;;;;7.43;5.20;;;;;;;16.05;100.00;100421.63;5051927;28;20280;-58
2022/05/19 02:26:44;;;;;;;8.23;5.13;;;;;;;16.05;100.00;100422.47;5051406;28;20227;-59
2022/05/19 02:29:17;;;;;;;9.07;4.70;;;;;;;16.06;100.00;100412.91;5053208;28;20174;-59
2022/05/19 02:31:44;;;;;;;5.70;5.20;;;;;;;16.00;100.00;100421.16;5041136;28;20300;-59
2022/05/19 02:34:10;;;;;;;5.40;4.90;;;;;;;16.11;100.00;100411.66;5052500;28;20537;-59
2022/05/19 02:36:35;;;;;;;5.80;4.83;;;;;;;16.05;100.00;100409.50;5047912;28;20327;-58
2022/05/19 02:39:01;;;;;;;5.93;4.87;;;;;;;16.17;100.00;100402.59;5033376;28;20178;-59
2022/05/19 02:41:26;;;;;;;6.67;5.20;;;;;;;15.99;100.00;100402.19;5044948;28;20259;-61
2022/05/19 02:43:51;;;;;;;5.37;4.60;;;;;;;15.99;100.00;100407.38;5036566;28;20202;-58
2022/05/19 02:46:17;;;;;;;7.67;5.10;;;;;;;16.01;100.00;100404.66;5047564;28;20185;-59
2022/05/19 02:48:42;;;;;;;6.93;5.20;;;;;;;15.96;100.00;100405.81;5054154;28;20177;-59
2022/05/19 02:51:07;;;;;;;5.47;4.83;;;;;;;15.98;100.00;100393.53;5026945;28;20238;-59
2022/05/19 02:53:33;;;;;;;5.70;5.20;;;;;;;15.96;100.00;100397.19;5011515;28;20205;-59
2022/05/19 02:55:58;;;;;;;5.97;5.23;;;;;;;15.98;100.00;100397.91;5012763;28;20179;-59
2022/05/19 02:58:23;;;;;;;6.73;5.10;;;;;;;15.93;100.00;100395.66;5011414;28;20630;-58
2022/05/19 03:00:49;;;;;;;5.37;4.90;;;;;;;15.94;100.00;100399.09;5004633;28;20297;-59
2022/05/19 03:03:15;;;;;;;6.20;5.07;;;;;;;15.92;100.00;100395.78;5064257;28;20174;-59
2022/05/19 03:05:41;;;;;;;6.23;4.83;;;;;;;15.84;100.00;100395.47;5032174;28;20520;-59
2022/05/19 03:08:08;;;;;;;6.43;4.87;;;;;;;15.84;100.00;100396.31;5047135;28;20205;-59
2022/05/19 03:10:36;;;;;;;5.17;4.63;;;;;;;15.70;100.00;100389.47;5044832;28;20229;-60
2022/05/19 03:13:02;;;;;;;5.67;5.17;;;;;;;15.79;100.00;100394.03;5046318;28;20189;-59
2022/05/19 03:15:27;;;;;;;5.53;4.73;;;;;;;15.71;100.00;100385.16;5040224;28;20256;-60
2022/05/19 03:17:53;;;;;;;5.07;4.53;;;;;;;15.69;100.00;100381.81;5050384;28;20847;-59
2022/05/19 03:20:19;;;;;;;5.70;5.10;;;;;;;15.65;100.00;100381.22;5042423;28;20187;-58
2022/05/19 03:22:44;;;;;;;9.63;5.37;;;;;;;15.67;100.00;100381.13;5050837;28;20209;-59
2022/05/19 03:25:10;;;;;;;5.00;4.50;;;;;;;15.69;100.00;100377.47;5051935;28;20177;-58
2022/05/19 03:27:37;;;;;;;6.07;5.20;;;;;;;15.67;100.00;100378.53;5051196;28;20230;-59
2022/05/19 03:30:04;;;;;;;5.53;4.87;;;;;;;15.58;100.00;100383.44;5047124;28;20181;-59
2022/05/19 03:32:30;;;;;;;5.37;4.63;;;;;;;15.61;100.00;100374.59;5014111;28;20243;-59
2022/05/19 03:34:55;;;;;;;6.00;5.13;;;;;;;15.63;100.00;100376.16;5052033;28;20621;-59
2022/05/19 03:37:20;;;;;;;6.17;5.53;;;;;;;15.67;100.00;100381.94;5051416;28;20223;-58
2022/05/19 03:39:46;;;;;;;6.23;5.73;;;;;;;15.61;100.00;100377.19;5051625;28;20209;-60
2022/05/19 03:42:11;;;;;;;5.37;4.90;;;;;;;15.61;100.00;100375.41;5056797;28;20233;-59
2022/05/19 03:44:37;;;;;;;6.27;5.33;;;;;;;15.60;100.00;100378.97;5048742;28;20228;-61
2022/05/19 03:47:04;;;;;;;6.80;5.93;;;;;;;15.72;100.00;100386.81;5068811;28;20606;-59
2022/05/19 03:49:29;;;;;;;5.67;5.17;;;;;;;15.70;100.00;100389.47;5049399;28;20257;-60
2022/05/19 03:51:55;;;;;;;7.23;5.17;;;;;;;15.76;100.00;100391.63;5070935;28;20298;-59
2022/05/19 03:54:20;;;;;;;7.13;5.50;;;;;;;15.55;100.00;100386.22;5053209;28;20173;-59
2022/05/19 03:56:46;;;;;;;5.43;4.93;;;;;;;15.49;100.00;100392.69;5050871;28;20253;-59
2022/05/19 03:59:11;;;;;;;8.03;4.53;;;;;;;15.65;100.00;100381.22;5051298;28;20185;-59
2022/05/19 04:01:36;;;;;;;5.97;5.37;;;;;;;15.70;100.00;100389.47;5065495;28;20787;-60
2022/05/19 04:04:02;;;;;;;8.87;5.33;;;;;;;15.64;100.00;100398.53;5058165;28;20231;-60
2022/05/19 04:06:29;;;;;;;5.87;5.27;;;;;;;15.65;100.00;100402.81;5049637;28;20585;-59
2022/05/19 04:08:54;;;;;;;6.83;6.13;;;;;;;15.65;100.00;100400.22;5049894;28;20276;-59
2022/05/19 04:11:20;;;;;;;6.17;5.43;;;;;;;15.89;100.00;100398.56;5061776;28;20315;-59
2022/05/19 04:13:45;;;;;;;7.50;5.43;;;;;;;15.96;100.00;100403.22;5055412;28;20243;-59
2022/05/19 04:16:11;;;;;;;6.93;5.03;;;;;;;15.95;100.00;100403.31;5050502;28;20201;-59
2022/05/19 04:18:37;;;;;;;6.57;5.33;;;;;;;16.16;99.93;100400.09;5049764;28;20192;-59
2022/05/19 04:21:04;;;;;;;6.13;5.63;;;;;;;16.29;97.86;100414.66;5026134;28;20243;-58
2022/05/19 04:23:29;;;;;;;5.83;5.23;;;;;;;16.34;97.46;100410.91;5058441;28;20645;-61
2022/05/19 04:25:55;;;;;;;6.63;5.33;;;;;;;16.39;97.08;100417.41;5051099;28;20185;-59
2022/05/19 04:28:21;;;;;;;7.77;5.53;;;;;;;16.49;96.72;100414.13;5050346;28;20177;-59
2022/05/19 04:30:46;;;;;;;6.00;5.20;;;;;;;16.61;95.99;100410.63;5046204;28;20326;-60
2022/05/19 04:33:11;;;;;;;7.33;5.53;;;;;;;16.67;94.16;100419.72;5060718;28;20213;-60
2022/05/19 04:35:37;;;;;;;6.20;5.60;;;;;;;16.80;92.93;100422.22;5050583;28;20532;-59
2022/05/19 04:38:12;;;;;;;6.80;5.77;;;;;;;16.85;91.98;100425.31;5049164;28;20180;-59
2022/05/19 04:40:39;;;;;;;6.20;5.30;;;;;;;17.00;91.11;100423.34;5045048;28;20227;-59
2022/05/19 04:43:06;;;;;;;9.30;5.33;;;;;;;17.15;89.65;100429.94;5045989;28;20238;-60
2022/05/19 04:45:32;;;;;;;6.90;5.33;;;;;;;17.22;88.85;100425.94;5039696;28;20985;-60
2022/05/19 04:47:57;;;;;;;8.20;5.20;;;;;;;17.40;87.88;100428.88;5045853;28;20221;-59
2022/05/19 04:50:23;;;;;;;5.77;5.03;;;;;;;17.52;86.85;100434.06;5026390;28;20233;-59
2022/05/19 04:52:48;;;;;;;8.50;5.63;;;;;;;17.62;86.12;100437.56;5057146;28;20691;-59
2022/05/19 04:55:13;;;;;;;6.37;5.77;;;;;;;17.80;85.16;100435.31;5030611;28;20235;-60
2022/05/19 04:57:41;;;;;;;6.43;5.30;;;;;;;17.87;83.97;100426.06;5029787;28;20284;-60
2022/05/19 05:00:10;;;;;;;8.37;5.40;;;;;;;17.67;84.96;100421.63;5036700;28;20174;-59
2022/05/19 05:02:36;;;;;;;8.10;5.33;;;;;;;17.72;85.25;100417.72;5060622;28;20185;-59
2022/05/19 05:05:01;;;;;;;12.07;8.80;;;;;;;17.84;83.33;100420.28;5030760;28;20174;-60
2022/05/19 05:07:26;;;;;;;5.27;4.70;;;;;;;18.10;82.61;100417.34;5029843;28;20175;-60
2022/05/19 05:09:52;;;;;;;7.90;5.00;;;;;;;18.04;82.78;100421.31;5030642;28;20170;-60
2022/05/19 05:12:17;;;;;;;11.33;4.40;;;;;;;18.18;81.97;100420.16;5052740;28;20765;-60
2022/05/19 05:14:42;;;;;;;5.30;4.43;;;;;;;18.39;81.11;100421.03;5051273;28;20189;-60
2022/05/19 05:17:08;;;;;;;8.77;4.63;;;;;;;18.63;78.63;100416.50;5052753;28;20225;-60
2022/05/19 05:19:33;;;;;;;7.67;4.70;;;;;;;18.75;77.43;100417.25;5044677;28;20192;-60
2022/05/19 05:21:59;;;;;;;7.10;4.23;;;;;;;18.76;75.55;100424.94;5074620;28;20227;-59
2022/05/19 05:24:26;;;;;;;7.33;4.40;;;;;;;19.16;74.59;100423.34;5052508;28;20708;-61
2022/05/19 05:26:51;;;;;;;4.10;3.70;;;;;;;19.21;73.80;100429.00;5051428;28;20542;-63
2022/05/19 05:29:17;;;;;;;10.40;5.20;;;;;;;19.31;74.53;100435.09;5053436;28;20192;-60
2022/05/19 05:31:42;;;;;;;6.47;5.30;;;;;;;19.54;75.04;100441.88;5059090;28;20231;-60
2022/05/19 05:34:08;;;;;;;6.43;5.00;;;;;;;19.66;72.23;100444.25;5059167;28;20536;-60
2022/05/19 05:36:33;;;;;;;5.13;4.63;;;;;;;19.65;70.52;100445.19;5053211;28;20181;-59
2022/05/19 05:38:59;;;;;;;8.17;4.53;;;;;;;19.67;70.62;100442.44;5053960;28;20173;-60
2022/05/19 05:41:25;;;;;;;6.47;4.83;;;;;;;19.59;69.22;100442.31;5047917;28;20228;-61
2022/05/19 05:43:51;;;;;;;6.93;4.60;;;;;;;19.71;67.70;100449.06;5063077;28;20181;-58
2022/05/19 05:46:16;;;;;;;7.47;4.17;;;;;;;20.02;65.69;100441.16;5068850;28;20169;-59
2022/05/19 05:48:45;;;;;;;10.43;4.40;;;;;;;20.16;65.99;100443.34;5068803;28;20185;-60
2022/05/19 05:51:12;;;;;;;5.23;3.80;;;;;;;19.99;62.41;100452.72;5070844;28;20318;-60
2022/05/19 05:53:39;;;;;;;6.50;3.87;;;;;;;20.25;60.78;100454.75;5049686;28;20197;-60
2022/05/19 05:56:06;;;;;;;4.83;3.00;;;;;;;19.98;58.94;100452.81;5065004;28;20658;-61
2022/05/19 05:58:32;;;;;;;11.43;3.47;;;;;;;19.75;59.09;100450.44;5065338;28;20307;-60
2022/05/19 06:00:57;;;;;;;4.43;3.33;;;;;;;19.86;58.11;100446.91;5039785;28;20224;-60
2022/05/19 06:03:23;;;;;;;5.03;2.70;;;;;;;19.87;56.58;100448.56;5062515;28;20644;-60
2022/05/19 06:05:49;;;;;;;4.83;2.83;;;;;;;19.93;56.03;100445.41;5052613;28;20798;-61
2022/05/19 06:08:15;;;;;;;2.83;2.33;;;;;;;20.04;55.47;100435.78;5050503;28;20189;-61
2022/05/19 06:10:40;;;;;;;3.97;2.50;;;;;;;20.12;55.38;100441.16;5039259;28;20217;-60
2022/05/19 06:13:06;;;;;;;3.93;3.00;;;;;;;20.18;54.43;100445.84;5054175;28;20271;-61
2022/05/19 06:15:32;;;;;;;4.20;2.30;;;;;;;20.27;53.81;100446.78;5031485;28;20628;-60
2022/05/19 06:17:58;;;;;;;5.07;2.33;;;;;;;20.54;52.76;100450.47;5048128;28;20405;-60
2022/05/19 06:20:24;;;;;;;3.70;2.30;;;;;;;20.72;52.51;100445.38;5043251;28;20899;-60
2022/05/19 06:22:49;;;;;;;3.17;2.33;;;;;;;21.04;51.83;100449.41;5058136;28;20193;-62
2022/05/19 06:25:19;;;;;;;5.27;2.53;;;;;;;21.54;50.11;100449.00;5032396;28;20201;-61
2022/05/19 06:27:45;;;;;;;2.47;2.13;;;;;;;21.98;47.76;100450.13;5030547;28;20279;-59
2022/05/19 06:30:12;;;;;;;2.90;2.40;;;;;;;21.77;47.20;100456.50;5039216;28;20267;-60
2022/05/19 06:32:39;;;;;;;7.73;2.63;;;;;;;21.80;47.12;100456.19;5064132;28;20555;-60
2022/05/19 06:35:05;;;;;;;4.67;2.27;;;;;;;22.05;47.16;100457.28;5047831;28;20190;-60
2022/05/19 06:37:31;;;;;;;5.67;2.73;;;;;;;22.81;44.67;100455.06;5050722;28;20668;-59
2022/05/19 06:39:56;;;;;;;4.80;2.43;;;;;;;23.95;42.25;100445.16;5044637;28;20323;-60
2022/05/19 06:42:21;;;;;;;3.40;2.50;;;;;;;24.72;40.53;100458.94;5054719;28;20232;-60
2022/05/19 06:44:47;;;;;;;3.93;2.43;;;;;;;25.03;39.57;100453.78;5032496;28;20295;-61
2022/05/19 06:47:16;;;;;;;4.45;2.58;;;;;;;24.94;39.53;100449.50;5030152;28;20181;-61
2022/05/19 06:49:46;;;;;;;3.08;2.53;;;;;;;24.88;39.75;100456.28;5049891;28;20184;-61
2022/05/19 06:52:24;;;;;;;5.50;2.40;;;;;;;25.51;38.32;100459.00;5053330;28;20346;-60
2022/05/19 06:54:52;;;;;;;3.85;2.30;;;;;;;25.92;37.29;100466.66;5030497;28;20228;-61
2022/05/19 06:57:22;;;;;;;4.22;2.58;;;;;;;26.48;36.64;100468.19;5029959;28;20557;-60
2022/05/19 06:59:49;;;;;;;3.33;2.13;;;;;;;26.87;35.59;100472.44;5046778;28;20182;-60
2022/05/19 07:02:15;;;;;;;9.07;2.35;;;;;;;27.26;34.01;100462.56;5011712;28;20279;-60
2022/05/19 07:04:40;;;;;;;3.53;2.80;;;;;;;27.91;33.44;100454.78;5036915;28;20647;-62
2022/05/19 07:07:06;;;;;;;4.53;2.53;;;;;;;26.98;34.56;100457.16;5031251;28;20186;-59
2022/05/19 07:09:33;;;;;;;3.92;2.08;;;;;;;26.29;35.22;100456.34;5030173;28;20178;-60
2022/05/19 07:12:00;;;;;;;2.58;2.38;;;;;;;26.71;35.48;100456.78;5039175;28;20273;-60
2022/05/19 07:14:26;;;;;;;6.07;2.42;;;;;;;27.19;34.63;100456.41;5046082;28;20189;-79
2022/05/19 07:16:51;;;;;;;4.03;2.17;;;;;;;26.87;35.18;100450.53;5055210;28;20734;-78
2022/05/19 07:22:04;;;;;;;3.28;2.67;;;;;;;27.18;34.67;100450.31;5056881;28;20320;-59
2022/05/19 07:24:29;;;;;;;4.30;2.30;;;;;;;28.23;33.50;100438.56;5050617;28;20226;-60
2022/05/19 07:26:55;;;;;;;8.77;2.63;;;;;;;27.81;33.89;100431.28;5049694;28;20216;-59
2022/05/19 07:29:22;;;;;;;3.08;2.70;;;;;;;28.62;31.95;100435.38;5049186;28;20243;-59
2022/05/19 07:31:49;;;;;;;4.25;2.20;;;;;;;28.26;32.77;100427.63;5033578;28;20259;-60
2022/05/19 07:34:19;;;;;;;2.97;2.30;;;;;;;28.71;31.92;100436.06;5049795;28;20185;-59
2022/05/19 07:36:45;;;;;;;4.90;2.70;;;;;;;29.43;31.13;100428.63;5042765;28;20190;-59
2022/05/19 07:39:11;;;;;;;3.80;2.10;;;;;;;29.86;31.05;100424.84;5046752;28;20264;-60
2022/05/19 07:41:38;;;;;;;6.82;2.58;;;;;;;30.34;30.41;100428.28;5072823;28;20282;-61
2022/05/19 07:44:04;;;;;;;4.75;2.50;;;;;;;30.25;29.95;100427.69;5053681;28;20639;-59
2022/05/19 07:46:29;;;;;;;4.43;2.40;;;;;;;29.49;30.94;100426.22;5066215;28;20530;-60
2022/05/19 07:48:57;;;;;;;5.70;2.38;;;;;;;28.91;31.79;100436.16;5067000;28;20238;-59
2022/05/19 07:51:25;;;;;;;9.18;2.38;;;;;;;31.26;28.85;100438.88;5070747;28;20307;-59
2022/05/19 07:53:51;;;;;;;8.98;2.63;;;;;;;31.37;27.87;100442.69;5055229;28;20181;-60
2022/05/19 07:56:16;;;;;;;5.22;2.40;;;;;;;31.01;27.40;100436.94;5066268;28;20459;-59
2022/05/19 07:58:42;;;;;;;4.18;1.80;;;;;;;31.19;26.76;100440.75;5066652;28;20607;-59
2022/05/19 08:01:07;;;;;;;2.85;1.80;;;;;;;31.09;27.00;100432.44;5058694;28;20309;-59
2022/05/19 08:03:33;;;;;;;4.70;2.03;;;;;;;31.32;26.83;100427.41;5065887;28;20184;-60
2022/05/19 08:05:58;;;;;;;4.85;1.95;;;;;;;32.23;25.96;100431.72;5066476;28;20181;-62
2022/05/19 08:08:24;;;;;;;3.20;1.90;;;;;;;31.88;26.11;100435.66;5051330;28;20205;-59
2022/05/19 08:10:49;;;;;;;3.28;2.03;;;;;;;32.38;25.33;100434.81;5053548;28;20328;-61
2022/05/19 08:15:59;;;;;;;2.95;1.85;;;;;;;34.87;21.68;100442.69;5051131;28;20638;-61
2022/05/19 08:18:25;;;;;;;3.47;1.48;;;;;;;33.76;23.09;100444.16;5049261;28;20241;-60
2022/05/19 08:21:02;;;;;;;3.28;1.60;;;;;;;32.89;24.49;100448.81;5059144;28;20224;-59
2022/05/19 08:23:32;;;;;;;3.33;2.30;;;;;;;30.69;26.60;100446.66;5066253;28;20177;-60
2022/05/19 08:25:57;;;;;;;5.20;1.90;;;;;;;32.35;25.29;100443.25;5049328;28;20178;-60
2022/05/19 08:28:33;;;;;;;2.35;1.88;;;;;;;33.35;25.53;100437.81;5050721;28;20177;-60
2022/05/19 08:31:08;;;;;;;7.40;1.65;;;;;;;33.28;25.23;100441.34;5042758;28;20309;-60
2022/05/19 08:33:35;;;;;;;8.30;1.90;;;;;;;33.61;24.01;100447.28;5053810;28;20181;-60
2022/05/19 08:36:02;;;;;;;3.90;1.58;;;;;;;33.26;25.27;100439.97;5061271;28;20181;-62
2022/05/19 08:38:27;;;;;;;3.30;1.90;;;;;;;33.41;26.55;100434.25;5049193;28;20181;-62
2022/05/19 08:40:57;;;;;;;1.70;1.60;;;;;;;30.80;27.93;100419.44;5046962;28;20242;-59
2022/05/19 08:43:29;;;;;;;4.10;1.92;;;;;;;31.07;27.55;100429.97;5049585;28;20196;-59
2022/05/19 08:45:59;;;;;;;3.03;2.20;;;;;;;29.78;30.56;100425.84;5049579;28;20178;-61
2022/05/19 08:48:27;;;;;;;3.13;1.85;;;;;;;31.22;27.97;100432.34;5053310;28;20184;-60
2022/05/19 08:51:01;;;;;;;2.78;2.00;;;;;;;32.82;26.50;100432.09;5039461;28;20229;-60
2022/05/19 08:53:33;;;;;;;3.70;2.00;;;;;;;34.28;24.27;100430.19;5042681;28;20202;-60
2022/05/19 08:56:15;;;;;;;2.63;2.00;;;;;;;33.31;25.81;100430.25;5033316;28;20589;-64
2022/05/19 08:59:11;;;;;;;2.90;1.80;;;;;;;32.22;26.06;100424.75;5033408;28;20209;-60
2022/05/19 09:02:04;;;;;;;3.33;2.00;;;;;;;31.19;28.68;100419.50;5031035;28;20225;-59
2022/05/19 09:04:59;;;;;;;4.90;2.08;;;;;;;32.06;27.55;100421.56;5034915;28;20178;-59
2022/05/19 09:07:59;;;;;;;5.78;1.75;;;;;;;33.87;25.91;100427.38;5032754;28;20213;-60
2022/05/19 09:11:06;;;;;;;4.57;2.25;;;;;;;34.97;25.44;100420.66;5027678;28;20237;-62
2022/05/19 09:13:37;;;;;;;6.25;2.20;;;;;;;34.66;23.60;100428.88;5014792;28;20256;-59
2022/05/19 09:16:19;;;;;;;9.25;2.58;;;;;;;34.65;24.66;100432.59;5032290;28;20696;-60
2022/05/19 09:18:50;;;;;;;5.68;2.30;;;;;;;34.88;24.19;100426.41;5022025;28;20286;-62
2022/05/19 09:21:15;;;;;;;2.83;2.00;;;;;;;32.93;26.41;100423.38;5033670;28;20765;-61
2022/05/19 09:23:41;;;;;;;2.10;2.00;;;;;;;31.76;27.95;100416.13;5039733;28;20178;-59
2022/05/19 09:26:26;;;;;;;6.43;2.58;;;;;;;31.17;29.47;100409.09;5033611;28;20198;-59
2022/05/19 09:28:56;;;;;;;2.92;1.90;;;;;;;33.07;27.56;100413.34;5033056;28;20186;-60
2022/05/19 09:31:45;;;;;;;3.05;2.17;;;;;;;34.02;24.70;100410.91;5015486;28;20640;-60
2022/05/19 09:34:11;;;;;;;2.92;2.50;;;;;;;35.30;24.07;100411.91;5020581;28;20190;-58
2022/05/19 09:36:41;;;;;;;7.45;2.13;;;;;;;35.10;24.14;100411.56;5025169;28;20724;-59
2022/05/19 09:39:14;;;;;;;5.07;2.30;;;;;;;35.31;24.35;100423.44;5034053;28;20193;-59
2022/05/19 09:41:46;;;;;;;2.20;1.95;;;;;;;35.15;23.88;100425.81;5036418;28;20244;-60
2022/05/19 09:44:15;;;;;;;5.80;3.42;;;;;;;34.73;23.85;100420.72;5049432;28;20178;-60
2022/05/19 09:46:43;;;;;;;3.97;2.30;;;;;;;34.17;25.92;100421.13;5032147;28;20212;-59
2022/05/19 09:49:24;;;;;;;3.58;2.58;;;;;;;35.38;23.92;100418.78;5032607;28;20176;-60
2022/05/19 09:51:50;;;;;;;3.80;2.10;;;;;;;34.98;24.89;100416.94;5037385;28;20263;-61
2022/05/19 09:54:16;;;;;;;2.78;2.00;;;;;;;36.57;24.27;100407.94;5032521;28;20178;-59
2022/05/19 09:56:48;;;;;;;3.67;1.95;;;;;;;35.42;24.85;100411.09;5033363;28;20190;-59
2022/05/19 09:59:23;;;;;;;3.67;1.88;;;;;;;34.56;24.73;100400.09;5031750;28;20612;-59
2022/05/19 10:02:16;;;;;;;3.58;2.40;;;;;;;33.95;24.96;100391.53;5025368;28;20237;-59
2022/05/19 10:04:48;;;;;;;2.92;2.20;;;;;;;32.73;25.71;100388.16;5049097;28;20650;-60
2022/05/19 10:07:22;;;;;;;3.30;2.20;;;;;;;34.75;25.55;100390.03;5031831;28;20228;-59
2022/05/19 10:09:48;;;;;;;5.78;2.42;;;;;;;35.75;23.31;100394.22;5032107;28;20179;-60
2022/05/19 10:12:22;;;;;;;5.55;2.40;;;;;;;35.00;25.49;100394.28;5023546;28;20237;-60
2022/05/19 10:14:56;;;;;;;8.38;2.47;;;;;;;35.03;25.28;100392.97;5032180;28;20186;-59
2022/05/19 10:17:40;;;;;;;3.15;2.00;;;;;;;36.13;24.17;100389.16;5031184;28;20225;-58
2022/05/19 10:20:21;;;;;;;3.38;2.20;;;;;;;36.13;23.98;100389.16;5023933;28;20186;-59
2022/05/19 10:23:05;;;;;;;3.53;2.40;;;;;;;36.90;22.84;100384.75;5045952;28;20178;-59
2022/05/19 10:25:58;;;;;;;5.25;2.55;;;;;;;35.71;23.42;100383.19;5033098;28;20646;-60
2022/05/19 10:31:44;;;;;;;5.15;2.17;;;;;;;32.57;27.70;100371.72;5031774;28;20231;-59
2022/05/19 10:34:32;;;;;;;8.25;2.85;;;;;;;32.03;30.22;100366.16;5014556;28;20578;-60
2022/05/19 10:37:15;;;;;;;4.72;2.70;;;;;;;31.47;30.42;100358.00;5026856;28;20186;-59
2022/05/19 10:40:04;;;;;;;5.45;2.47;;;;;;;31.98;30.35;100356.16;5032777;28;20186;-59
2022/05/19 10:42:59;;;;;;;4.97;2.85;;;;;;;31.33;30.54;100354.63;5024939;28;20303;-60
2022/05/19 10:45:32;;;;;;;3.95;2.78;;;;;;;30.84;32.37;100362.22;4981131;28;20204;-60
2022/05/19 10:48:19;;;;;;;6.05;2.80;;;;;;;30.33;31.95;100357.69;5050541;28;20275;-59
2022/05/19 10:50:59;;;;;;;9.90;3.22;;;;;;;30.03;32.84;100350.19;5040755;28;20364;-60
2022/05/19 10:53:39;;;;;;;5.20;2.67;;;;;;;30.66;32.56;100344.31;5042463;28;20212;-60
2022/05/19 10:56:16;;;;;;;9.00;3.25;;;;;;;29.63;33.61;100343.03;5051804;28;20544;-60
2022/05/19 10:59:03;;;;;;;10.68;3.65;;;;;;;29.76;34.15;100337.75;5052438;28;20581;-58
2022/05/19 11:01:38;;;;;;;3.63;2.53;;;;;;;29.97;34.46;100335.09;5022302;28;20590;-59
2022/05/19 11:04:36;;;;;;;7.60;2.70;;;;;;;30.22;34.76;100333.44;5030864;28;20213;-59
2022/05/19 11:07:30;;;;;;;8.13;2.58;;;;;;;29.76;34.97;100335.09;5030685;28;20209;-58
2022/05/19 11:10:33;;;;;;;7.13;2.60;;;;;;;29.35;34.53;100329.97;5030977;28;20683;-59
2022/05/19 11:13:10;;;;;;;6.63;2.72;;;;;;;29.28;34.60;100324.66;5021014;28;21026;-59
2022/05/19 11:15:38;;;;;;;3.45;2.75;;;;;;;28.43;35.89;100330.25;5026278;28;20233;-59
2022/05/19 11:18:30;;;;;;;4.38;2.65;;;;;;;29.26;35.93;100319.56;5042098;28;20213;-59
2022/05/19 11:21:17;;;;;;;10.00;2.90;;;;;;;29.08;35.73;100314.03;5027585;28;20707;-59
2022/05/19 11:24:11;;;;;;;5.15;2.85;;;;;;;29.91;35.74;100308.41;5023943;28;20198;-59
2022/05/19 11:26:56;;;;;;;4.75;2.38;;;;;;;30.27;35.68;100306.28;5016914;28;20189;-60
2022/05/19 11:29:42;;;;;;;3.90;2.67;;;;;;;30.94;33.67;100307.84;5023502;28;20184;-58
2022/05/19 11:32:22;;;;;;;3.65;2.72;;;;;;;30.11;33.10;100296.94;5050843;28;20623;-58
2022/05/19 11:35:03;;;;;;;3.63;2.63;;;;;;;30.02;33.72;100298.16;5067283;28;20272;-58
2022/05/19 11:37:41;;;;;;;6.28;2.53;;;;;;;29.81;34.67;100292.06;5066337;28;20272;-59
2022/05/19 11:40:37;;;;;;;3.83;2.58;;;;;;;29.61;35.03;100284.94;5041923;28;20538;-59
2022/05/19 11:43:08;;;;;;;6.25;2.75;;;;;;;30.17;35.00;100295.28;5062423;28;20187;-59
2022/05/19 11:45:46;;;;;;;9.07;2.30;;;;;;;30.61;34.10;100285.75;5050080;28;20181;-60
2022/05/19 11:57:34;;;;;;;5.60;2.38;;;;;;;30.80;34.59;100289.34;5051240;28;20243;-59
2022/05/19 12:00:03;;;;;;;4.80;2.58;;;;;;;31.39;33.01;100284.69;5050057;28;20205;-60